createdAt,value
2022-11-24T00:01:07.013Z,100393.06
2022-11-24T00:03:34.246Z,100393.72
2022-11-24T00:06:09.436Z,100392.72
2022-11-24T00:08:37.335Z,100388.63
2022-11-24T00:11:15.400Z,100376.81
2022-11-24T00:13:44.151Z,100385.31
2022-11-24T00:16:17.244Z,100398.03
2022-11-24T00:18:45.476Z,100415.19
2022-11-24T00:21:12.614Z,100421.25
2022-11-24T00:23:39.714Z,100424.53
2022-11-24T00:26:12.303Z,100420.44
2022-11-24T00:28:40.406Z,100426.66
2022-11-24T00:31:17.507Z,100407.88
2022-11-24T00:33:45.623Z,100426.34
2022-11-24T00:36:12.367Z,100417.22
2022-11-24T00:38:39.024Z,100415.94
2022-11-24T00:41:06.205Z,100421.19
2022-11-24T00:43:33.934Z,100427.88
2022-11-24T00:46:00.844Z,100420.84
2022-11-24T00:48:27.607Z,100419.84
2022-11-24T00:50:59.676Z,100427.22
2022-11-24T00:53:27.039Z,100436.25
2022-11-24T00:55:54.464Z,100439.03
2022-11-24T00:58:21.855Z,100440.16
2022-11-24T01:00:49.062Z,100440.69
2022-11-24T01:03:16.191Z,100441.69
2022-11-24T01:05:42.867Z,100444.31
2022-11-24T01:08:09.496Z,100453.97
2022-11-24T01:10:36.339Z,100453.31
2022-11-24T01:13:03.465Z,100455.09
2022-11-24T01:15:30.394Z,100451.88
2022-11-24T01:17:57.534Z,100457.59
2022-11-24T01:20:24.111Z,100452.88
2022-11-24T01:22:50.689Z,100471.50
2022-11-24T01:25:17.352Z,100475.94
2022-11-24T01:27:44.025Z,100476.75
2022-11-24T01:30:11.160Z,100466.28
2022-11-24T01:32:37.882Z,100469.22
2022-11-24T01:35:05.556Z,100473.66
2022-11-24T01:37:32.296Z,100473.19
2022-11-24T01:39:59.200Z,100469.13
2022-11-24T01:42:26.165Z,100474.34
2022-11-24T01:45:27.550Z,100478.91
2022-11-24T01:47:54.526Z,100480.25
2022-11-24T01:50:21.714Z,100480.25
2022-11-24T01:52:52.947Z,100477.63
2022-11-24T01:55:31.031Z,100478.44
2022-11-24T01:58:04.696Z,100480.91
2022-11-24T02:00:32.729Z,100483.97
2022-11-24T02:03:00.004Z,100487.06
2022-11-24T02:05:39.229Z,100496.06
2022-11-24T02:08:14.772Z,100489.34
2022-11-24T02:10:42.806Z,100488.66
2022-11-24T02:13:09.537Z,100482.28
2022-11-24T02:15:36.173Z,100490.75
2022-11-24T02:18:02.889Z,100487.28
2022-11-24T02:20:29.860Z,100494.78
2022-11-24T02:23:03.751Z,100489.06
2022-11-24T02:25:48.456Z,100493.78
2022-11-24T02:28:19.016Z,100490.81
2022-11-24T02:30:46.141Z,100501.94
2022-11-24T02:33:14.259Z,100497.34
2022-11-24T02:35:41.232Z,100504.69
2022-11-24T02:38:13.390Z,100507.78
2022-11-24T02:40:44.418Z,100511.19
2022-11-24T02:43:19.747Z,100511.38
2022-11-24T02:45:46.962Z,100514.00
2022-11-24T02:48:16.660Z,100519.25
2022-11-24T02:50:45.371Z,100517.44
2022-11-24T02:53:12.274Z,100517.44
2022-11-24T02:55:39.014Z,100506.16
2022-11-24T02:58:05.889Z,100511.38
2022-11-24T03:00:32.597Z,100513.19
2022-11-24T03:05:43.895Z,100514.63
2022-11-24T03:08:12.269Z,100523.16
2022-11-24T03:10:39.848Z,100514.28
2022-11-24T03:13:06.435Z,100507.25
2022-11-24T03:15:33.471Z,100504.47
2022-11-24T03:18:01.110Z,100514.75
2022-11-24T03:20:28.122Z,100515.75
2022-11-24T03:23:02.498Z,100517.19
2022-11-24T03:25:29.426Z,100519.47
2022-11-24T03:28:00.493Z,100520.94
2022-11-24T03:30:27.488Z,100519.94
2022-11-24T03:32:54.294Z,100515.38
2022-11-24T03:35:22.599Z,100514.38
2022-11-24T03:37:49.697Z,100522.88
2022-11-24T03:40:17.953Z,100526.47
2022-11-24T03:42:44.584Z,100528.13
2022-11-24T03:47:59.674Z,100520.75
2022-11-24T03:50:26.293Z,100527.19
2022-11-24T03:52:52.931Z,100529.94
2022-11-24T03:55:19.650Z,100532.56
2022-11-24T03:57:54.028Z,100536.19
2022-11-24T04:00:20.739Z,100543.03
2022-11-24T04:02:48.601Z,100543.03
2022-11-24T04:05:15.738Z,100539.63
2022-11-24T04:07:42.444Z,100544.69
2022-11-24T04:10:09.360Z,100551.09
2022-11-24T04:12:45.022Z,100552.72
2022-11-24T04:15:19.491Z,100558.59
2022-11-24T04:17:47.512Z,100553.38
2022-11-24T04:20:15.027Z,100567.09
2022-11-24T04:22:42.541Z,100569.88
2022-11-24T04:25:10.730Z,100577.91
2022-11-24T04:27:39.787Z,100577.09
2022-11-24T04:30:07.526Z,100585.13
2022-11-24T04:32:34.059Z,100584.78
2022-11-24T04:35:00.754Z,100582.00
2022-11-24T04:37:27.317Z,100589.84
2022-11-24T04:39:55.397Z,100592.47
2022-11-24T04:42:22.322Z,100593.28
2022-11-24T04:44:48.795Z,100595.91
2022-11-24T04:47:22.104Z,100607.03
2022-11-24T04:49:50.171Z,100613.91
2022-11-24T04:55:01.761Z,100614.38
2022-11-24T04:57:28.397Z,100626.47
2022-11-24T04:59:55.538Z,100627.31
2022-11-24T05:02:23.239Z,100630.09
2022-11-24T05:04:49.867Z,100633.50
2022-11-24T05:07:19.298Z,100641.84
2022-11-24T05:10:06.613Z,100643.47
2022-11-24T05:12:33.241Z,100648.72
2022-11-24T05:15:01.129Z,100649.38
2022-11-24T05:17:32.950Z,100660.03
2022-11-24T05:19:59.882Z,100664.91
2022-11-24T05:22:28.882Z,100669.34
2022-11-24T05:24:56.003Z,100669.66
2022-11-24T05:27:22.546Z,100677.88
2022-11-24T05:29:49.262Z,100681.66
2022-11-24T05:32:15.906Z,100688.69
2022-11-24T05:34:42.647Z,100690.03
2022-11-24T05:37:09.202Z,100697.06
2022-11-24T05:39:36.868Z,100701.81
2022-11-24T05:42:25.312Z,100702.78
2022-11-24T05:44:56.170Z,100710.00
2022-11-24T05:47:22.799Z,100713.59
2022-11-24T05:49:49.770Z,100713.78
2022-11-24T05:52:16.541Z,100723.63
2022-11-24T05:54:43.181Z,100730.81
2022-11-24T05:57:09.988Z,100738.00
2022-11-24T05:59:36.508Z,100745.22
2022-11-24T06:02:03.868Z,100747.84
2022-11-24T06:04:30.909Z,100755.84
2022-11-24T06:06:57.773Z,100758.31
2022-11-24T06:09:25.141Z,100764.34
2022-11-24T06:11:54.891Z,100766.16
2022-11-24T06:14:23.035Z,100766.16
2022-11-24T06:16:49.685Z,100775.66
2022-11-24T06:19:16.342Z,100784.50
2022-11-24T06:21:42.909Z,100782.88
2022-11-24T06:24:09.548Z,100785.47
2022-11-24T06:26:36.215Z,100794.16
2022-11-24T06:29:02.879Z,100793.47
2022-11-24T06:31:29.666Z,100802.97
2022-11-24T06:33:56.441Z,100803.81
2022-11-24T06:36:22.927Z,100811.66
2022-11-24T06:38:49.545Z,100815.09
2022-11-24T06:41:17.265Z,100817.72
2022-11-24T06:43:44.721Z,100824.75
2022-11-24T06:46:11.946Z,100837.84
2022-11-24T06:48:38.787Z,100833.56
2022-11-24T06:51:10.083Z,100844.84
2022-11-24T06:53:38.364Z,100847.47
2022-11-24T06:56:10.575Z,100846.66
2022-11-24T06:58:42.634Z,100848.78
2022-11-24T07:01:10.227Z,100852.88
2022-11-24T07:03:37.118Z,100856.16
2022-11-24T07:06:04.140Z,100875.78
2022-11-24T07:08:30.887Z,100871.66
2022-11-24T07:10:57.482Z,100874.16
2022-11-24T07:13:23.962Z,100884.75
2022-11-24T07:15:50.753Z,100880.50
2022-11-24T07:18:17.295Z,100891.66
2022-11-24T07:20:43.822Z,100889.84
2022-11-24T07:23:10.552Z,100901.94
2022-11-24T07:25:37.044Z,100900.81
2022-11-24T07:28:03.767Z,100902.44
2022-11-24T07:30:30.385Z,100912.75
2022-11-24T07:33:03.879Z,100901.97
2022-11-24T07:35:30.866Z,100900.16
2022-11-24T07:37:59.256Z,100901.81
2022-11-24T07:40:26.953Z,100914.72
2022-11-24T07:42:54.403Z,100917.16
2022-11-24T07:45:21.531Z,100925.88
2022-11-24T07:47:48.158Z,100940.59
2022-11-24T07:50:15.328Z,100942.06
2022-11-24T07:52:41.874Z,100953.19
2022-11-24T07:55:09.089Z,100948.78
2022-11-24T07:57:35.717Z,100959.25
2022-11-24T08:00:04.230Z,100967.78
2022-11-24T08:02:31.171Z,100976.28
2022-11-24T08:04:57.807Z,100980.69
2022-11-24T08:07:24.368Z,100986.75
2022-11-24T08:09:52.211Z,100988.41
2022-11-24T08:12:21.979Z,100989.03
2022-11-24T08:14:52.290Z,100999.88
2022-11-24T08:17:18.909Z,101003.16
2022-11-24T08:19:45.794Z,101002.81
2022-11-24T08:22:12.459Z,100996.47
2022-11-24T08:24:40.602Z,100994.47
2022-11-24T08:27:07.424Z,100995.97
2022-11-24T08:29:34.171Z,101003.50
2022-11-24T08:32:00.869Z,100993.66
2022-11-24T08:34:27.431Z,101003.34
2022-11-24T08:36:54.111Z,101009.56
2022-11-24T08:39:20.803Z,101014.97
2022-11-24T08:41:47.619Z,101014.97
2022-11-24T08:44:16.015Z,101016.44
2022-11-24T08:46:42.683Z,101027.91
2022-11-24T08:49:09.961Z,101029.91
2022-11-24T08:51:37.043Z,101020.72
2022-11-24T08:54:04.263Z,101022.22
2022-11-24T08:56:33.065Z,101038.56
2022-11-24T08:59:00.537Z,101037.75
2022-11-24T09:01:28.384Z,101042.19
2022-11-24T09:03:56.449Z,101039.38
2022-11-24T09:06:25.969Z,101048.88
2022-11-24T09:08:54.740Z,101051.97
2022-11-24T09:11:21.732Z,101047.06
2022-11-24T09:13:48.534Z,101054.09
2022-11-24T09:16:27.031Z,101059.84
2022-11-24T09:18:58.211Z,101068.69
2022-11-24T09:21:25.334Z,101075.56
2022-11-24T09:23:53.394Z,101065.91
2022-11-24T09:26:28.695Z,101068.72
2022-11-24T09:28:57.368Z,101072.00
2022-11-24T09:31:30.764Z,101071.81
2022-11-24T09:33:58.088Z,101078.56
2022-11-24T09:36:24.746Z,101082.50
2022-11-24T09:38:52.647Z,101083.97
2022-11-24T09:41:43.958Z,101093.97
2022-11-24T09:44:19.653Z,101087.56
2022-11-24T09:47:17.187Z,101099.53
2022-11-24T09:49:58.889Z,101105.94
2022-11-24T09:52:49.641Z,101110.88
2022-11-24T09:55:25.765Z,101125.31
2022-11-24T09:58:02.178Z,101117.94
2022-11-24T10:00:30.291Z,101116.44
2022-11-24T10:02:58.223Z,101122.84
2022-11-24T10:05:29.232Z,101125.13
2022-11-24T10:08:37.645Z,101134.47
2022-11-24T10:11:12.883Z,101136.78
2022-11-24T10:14:05.324Z,101138.75
2022-11-24T10:16:57.705Z,101135.16
2022-11-24T10:19:37.345Z,101143.50
2022-11-24T10:22:42.614Z,101144.19
2022-11-24T10:25:21.522Z,101144.66
2022-11-24T10:28:13.203Z,101149.09
2022-11-24T10:30:40.256Z,101154.34
2022-11-24T10:33:28.805Z,101154.19
2022-11-24T10:36:37.675Z,101166.78
2022-11-24T10:39:15.699Z,101174.84
2022-11-24T10:41:56.923Z,101168.91
2022-11-24T10:44:23.700Z,101174.19
2022-11-24T10:46:52.854Z,101174.69
2022-11-24T10:49:30.033Z,101176.66
2022-11-24T10:52:11.424Z,101182.25
2022-11-24T10:54:55.201Z,101182.25
2022-11-24T10:57:28.960Z,101182.88
2022-11-24T10:59:56.542Z,101189.94
2022-11-24T11:02:31.165Z,101195.03
2022-11-24T11:04:58.378Z,101192.22
2022-11-24T11:07:26.877Z,101195.00
2022-11-24T11:10:23.145Z,101200.75
2022-11-24T11:12:53.114Z,101198.59
2022-11-24T11:15:31.172Z,101197.75
2022-11-24T11:18:00.260Z,101204.97
2022-11-24T11:20:33.167Z,101197.25
2022-11-24T11:23:17.400Z,101190.19
2022-11-24T11:25:44.143Z,101187.84
2022-11-24T11:28:18.343Z,101193.59
2022-11-24T11:31:18.040Z,101194.88
2022-11-24T11:34:23.230Z,101200.47
2022-11-24T11:36:58.223Z,101201.16
2022-11-24T11:39:35.463Z,101199.63
2022-11-24T11:43:00.737Z,101189.78
2022-11-24T11:45:17.883Z,101193.53
2022-11-24T11:47:56.774Z,101190.56
2022-11-24T11:54:05.313Z,101198.25
2022-11-24T11:56:37.866Z,101190.66
2022-11-24T11:59:16.837Z,101189.34
2022-11-24T12:02:04.267Z,101196.72
2022-11-24T12:04:49.588Z,101190.63
2022-11-24T12:07:19.125Z,101199.81
2022-11-24T12:10:11.029Z,101204.06
2022-11-24T12:12:55.918Z,101209.34
2022-11-24T12:15:44.762Z,101198.47
2022-11-24T12:19:00.740Z,101195.66
2022-11-24T12:21:41.315Z,101202.22
2022-11-24T12:24:19.788Z,101193.00
2022-11-24T12:26:54.945Z,101197.56
2022-11-24T12:29:27.453Z,101204.09
2022-11-24T12:32:05.766Z,101203.13
2022-11-24T12:35:09.033Z,101205.56
2022-11-24T12:38:02.780Z,101195.72
2022-11-24T12:40:43.626Z,101211.94
2022-11-24T12:43:22.738Z,101206.53
2022-11-24T12:46:12.508Z,101211.44
2022-11-24T12:49:15.286Z,101214.53
2022-11-24T12:51:46.221Z,101217.00
2022-11-24T12:54:16.028Z,101219.63
2022-11-24T12:57:02.278Z,101227.34
2022-11-24T12:59:43.822Z,101232.63
2022-11-24T13:02:47.060Z,101225.81
2022-11-24T13:05:21.286Z,101232.56
2022-11-24T13:07:54.534Z,101225.28
2022-11-24T13:10:40.498Z,101215.09
2022-11-24T13:13:13.261Z,101218.41
2022-11-24T13:16:34.678Z,101217.56
2022-11-24T13:18:47.809Z,101220.22
2022-11-24T13:21:43.125Z,101219.56
2022-11-24T13:24:19.899Z,101222.84
2022-11-24T13:26:49.165Z,101227.09
2022-11-24T13:29:30.963Z,101220.03
2022-11-24T13:32:06.723Z,101213.13
2022-11-24T13:34:39.045Z,101210.50
2022-11-24T13:37:35.377Z,101214.13
2022-11-24T13:40:11.892Z,101217.13
2022-11-24T13:43:02.345Z,101221.38
2022-11-24T13:45:41.892Z,101215.09
2022-11-24T13:48:21.386Z,101219.09
2022-11-24T13:50:52.204Z,101214.34
2022-11-24T13:53:41.435Z,101219.97
2022-11-24T13:56:14.051Z,101217.31
2022-11-24T13:58:42.081Z,101217.50
2022-11-24T14:01:36.228Z,101215.03
2022-11-24T14:07:07.995Z,101214.75
2022-11-24T14:09:42.123Z,101218.91
2022-11-24T14:12:21.029Z,101217.44
2022-11-24T14:14:49.971Z,101214.34
2022-11-24T14:17:18.793Z,101214.88
2022-11-24T14:19:48.250Z,101216.53
2022-11-24T14:22:31.430Z,101208.00
2022-11-24T14:25:00.080Z,101211.78
2022-11-24T14:27:36.267Z,101208.84
2022-11-24T14:30:13.527Z,101201.66
2022-11-24T14:32:41.817Z,101195.09
2022-11-24T14:35:24.013Z,101191.50
2022-11-24T14:37:51.526Z,101196.66
2022-11-24T14:40:45.363Z,101197.31
2022-11-24T14:43:35.601Z,101203.25
2022-11-24T14:46:06.184Z,101207.53
2022-11-24T14:48:46.881Z,101212.50
2022-11-24T14:51:24.690Z,101210.38
2022-11-24T14:53:53.851Z,101204.81
2022-11-24T14:56:28.047Z,101206.31
2022-11-24T14:58:56.069Z,101210.25
2022-11-24T15:01:35.291Z,101210.09
2022-11-24T15:04:46.328Z,101217.16
2022-11-24T15:07:19.377Z,101211.09
2022-11-24T15:09:55.489Z,101214.38
2022-11-24T15:12:34.626Z,101216.88
2022-11-24T15:15:14.517Z,101224.59
2022-11-24T15:17:50.291Z,101218.66
2022-11-24T15:20:55.605Z,101218.00
2022-11-24T15:23:33.183Z,101221.25
2022-11-24T15:26:02.435Z,101220.91
2022-11-24T15:28:30.784Z,101223.03
2022-11-24T15:31:01.812Z,101225.84
2022-11-24T15:33:29.741Z,101236.81
2022-11-24T15:35:56.789Z,101229.44
2022-11-24T15:38:25.445Z,101235.97
2022-11-24T15:40:54.890Z,101242.38
2022-11-24T15:43:38.684Z,101235.00
2022-11-24T15:46:07.034Z,101228.41
2022-11-24T15:48:33.840Z,101239.25
2022-11-24T15:51:03.179Z,101229.38
2022-11-24T15:53:32.828Z,101221.84
2022-11-24T15:56:02.019Z,101226.59
2022-11-24T15:58:28.845Z,101223.47
2022-11-24T16:00:56.554Z,101227.88
2022-11-24T16:03:46.485Z,101224.44
2022-11-24T16:06:19.236Z,101228.50
2022-11-24T16:08:50.664Z,101227.06
2022-11-24T16:11:17.286Z,101224.75
2022-11-24T16:13:54.057Z,101234.25
2022-11-24T16:16:23.664Z,101225.72
2022-11-24T16:18:54.276Z,101228.34
2022-11-24T16:21:21.719Z,101227.69
2022-11-24T16:23:48.945Z,101219.00
2022-11-24T16:26:15.638Z,101221.63
2022-11-24T16:28:44.711Z,101227.84
2022-11-24T16:31:12.734Z,101227.34
2022-11-24T16:33:41.349Z,101231.72
2022-11-24T16:36:08.949Z,101232.72
2022-11-24T16:38:35.789Z,101233.72
2022-11-24T16:41:02.398Z,101238.28
2022-11-24T16:43:29.876Z,101240.25
2022-11-24T16:46:08.777Z,101244.00
2022-11-24T16:48:38.149Z,101236.44
2022-11-24T16:51:12.100Z,101236.44
2022-11-24T16:53:38.919Z,101231.38
2022-11-24T16:56:06.386Z,101230.69
2022-11-24T16:58:33.747Z,101228.06
2022-11-24T17:01:12.174Z,101226.59
2022-11-24T17:03:39.988Z,101228.72
2022-11-24T17:06:08.684Z,101234.09
2022-11-24T17:08:37.266Z,101224.78
2022-11-24T17:11:11.813Z,101233.75
2022-11-24T17:13:39.058Z,101234.56
2022-11-24T17:16:08.173Z,101232.25
2022-11-24T17:18:34.877Z,101229.66
2022-11-24T17:21:07.780Z,101227.84
2022-11-24T17:23:36.085Z,101223.78
2022-11-24T17:26:04.212Z,101233.28
2022-11-24T17:28:30.923Z,101227.06
2022-11-24T17:30:57.778Z,101228.56
2022-11-24T17:33:24.517Z,101233.47
2022-11-24T17:35:51.327Z,101230.69
2022-11-24T17:38:17.929Z,101238.56
2022-11-24T17:40:48.088Z,101227.25
2022-11-24T17:43:14.829Z,101228.06
2022-11-24T17:45:41.584Z,101231.50
2022-11-24T17:48:08.683Z,101237.91
2022-11-24T17:50:35.316Z,101232.16
2022-11-24T17:53:01.844Z,101231.47
2022-11-24T17:55:28.409Z,101238.53
2022-11-24T17:57:57.040Z,101238.69
2022-11-24T18:00:23.881Z,101240.50
2022-11-24T18:02:50.499Z,101236.06
2022-11-24T18:05:17.196Z,101233.28
2022-11-24T18:07:43.717Z,101229.16
2022-11-24T18:10:11.019Z,101228.84
2022-11-24T18:12:37.569Z,101231.66
2022-11-24T18:15:04.404Z,101238.53
2022-11-24T18:17:31.036Z,101243.59
2022-11-24T18:19:57.578Z,101233.78
2022-11-24T18:22:50.045Z,101240.53
2022-11-24T18:25:10.776Z,101246.72
2022-11-24T18:27:37.300Z,101240.66
2022-11-24T18:30:04.993Z,101238.88
2022-11-24T18:32:32.674Z,101233.31
2022-11-24T18:34:59.274Z,101228.88
2022-11-24T18:37:26.241Z,101230.56
2022-11-24T18:39:52.955Z,101223.66
2022-11-24T18:42:20.889Z,101224.50
2022-11-24T18:44:51.100Z,101224.63
2022-11-24T18:47:21.067Z,101230.69
2022-11-24T18:49:47.588Z,101221.38
2022-11-24T18:52:14.213Z,101221.50
2022-11-24T18:54:40.804Z,101222.81
2022-11-24T18:57:07.434Z,101229.16
2022-11-24T18:59:34.154Z,101226.88
2022-11-24T19:02:00.781Z,101225.38
2022-11-24T19:04:28.348Z,101217.03
2022-11-24T19:06:54.893Z,101220.75
2022-11-24T19:09:25.571Z,101215.84
2022-11-24T19:11:52.176Z,101210.75
2022-11-24T19:14:19.371Z,101207.78
2022-11-24T19:16:48.022Z,101202.69
2022-11-24T19:19:15.129Z,101200.91
2022-11-24T19:21:41.819Z,101209.56
2022-11-24T19:24:13.230Z,101211.53
2022-11-24T19:26:39.971Z,101200.38
2022-11-24T19:29:08.635Z,101199.56
2022-11-24T19:31:35.573Z,101195.31
2022-11-24T19:34:03.668Z,101188.28
2022-11-24T19:36:34.364Z,101193.00
2022-11-24T19:39:02.227Z,101193.00
2022-11-24T19:41:31.010Z,101192.50
2022-11-24T19:43:58.846Z,101187.25
2022-11-24T19:46:27.813Z,101196.91
2022-11-24T19:48:56.343Z,101190.03
2022-11-24T19:51:24.482Z,101199.69
2022-11-24T19:53:51.769Z,101195.56
2022-11-24T19:56:24.161Z,101197.53
2022-11-24T19:58:52.086Z,101197.38
2022-11-24T20:01:31.522Z,101198.50
2022-11-24T20:04:01.395Z,101210.91
2022-11-24T20:06:30.272Z,101209.16
2022-11-24T20:09:01.177Z,101206.66
2022-11-24T20:11:28.779Z,101213.69
2022-11-24T20:13:56.060Z,101213.69
2022-11-24T20:16:29.514Z,101213.53
2022-11-24T20:19:07.870Z,101207.66
2022-11-24T20:21:36.044Z,101213.69
2022-11-24T20:24:10.090Z,101206.81
2022-11-24T20:26:39.520Z,101205.84
2022-11-24T20:29:06.415Z,101209.44
2022-11-24T20:31:35.855Z,101197.31
2022-11-24T20:34:04.101Z,101198.16
2022-11-24T20:36:32.642Z,101193.22
2022-11-24T20:39:01.542Z,101190.59
2022-11-24T20:41:30.655Z,101195.53
2022-11-24T20:43:59.984Z,101201.44
2022-11-24T20:46:29.678Z,101191.47
2022-11-24T20:48:57.389Z,101196.56
2022-11-24T20:51:27.349Z,101197.22
2022-11-24T20:53:57.547Z,101195.94
2022-11-24T20:56:26.973Z,101196.44
2022-11-24T20:58:54.084Z,101197.94
2022-11-24T21:01:24.152Z,101195.66
2022-11-24T21:03:59.006Z,101194.06
2022-11-24T21:06:26.755Z,101191.44
2022-11-24T21:08:54.650Z,101190.63
2022-11-24T21:11:24.241Z,101195.84
2022-11-24T21:13:51.268Z,101197.50
2022-11-24T21:16:37.752Z,101195.84
2022-11-24T21:19:06.938Z,101194.75
2022-11-24T21:21:36.799Z,101198.81
2022-11-24T21:24:06.302Z,101198.69
2022-11-24T21:26:39.547Z,101195.59
2022-11-24T21:29:07.165Z,101184.13
2022-11-24T21:31:38.625Z,101179.88
2022-11-24T21:34:06.735Z,101180.19
2022-11-24T21:36:35.160Z,101182.66
2022-11-24T21:39:03.373Z,101191.84
2022-11-24T21:41:32.840Z,101179.56
2022-11-24T21:43:59.749Z,101177.91
2022-11-24T21:46:32.395Z,101175.31
2022-11-24T21:48:58.978Z,101166.63
2022-11-24T21:51:25.472Z,101173.63
2022-11-24T21:53:51.974Z,101172.00
2022-11-24T21:56:21.812Z,101171.50
2022-11-24T21:58:49.954Z,101162.16
2022-11-24T22:01:19.137Z,101166.44
2022-11-24T22:03:45.974Z,101158.41
2022-11-24T22:06:13.398Z,101151.22
2022-11-24T22:08:41.335Z,101155.28
2022-11-24T22:11:16.333Z,101151.72
2022-11-24T22:13:44.378Z,101149.91
2022-11-24T22:16:14.532Z,101155.97
2022-11-24T22:18:42.831Z,101148.13
2022-11-24T22:21:14.850Z,101135.81
2022-11-24T22:23:42.173Z,101139.13
2022-11-24T22:26:13.518Z,101141.56
2022-11-24T22:28:40.612Z,101144.19
2022-11-24T22:31:12.457Z,101148.63
2022-11-24T22:33:40.061Z,101145.31
2022-11-24T22:36:07.367Z,101148.78
2022-11-24T22:38:35.172Z,101148.63
2022-11-24T22:41:12.591Z,101147.63
2022-11-24T22:43:40.506Z,101150.13
2022-11-24T22:46:16.826Z,101153.38
2022-11-24T22:48:45.956Z,101143.72
2022-11-24T22:51:15.173Z,101138.47
2022-11-24T22:53:46.298Z,101145.50
2022-11-24T22:56:13.632Z,101149.94
2022-11-24T22:58:42.385Z,101147.16
2022-11-24T23:01:15.756Z,101145.38
2022-11-24T23:03:43.533Z,101148.63
2022-11-24T23:06:13.184Z,101152.25
2022-11-24T23:08:40.615Z,101152.91
2022-11-24T23:11:11.014Z,101157.31
2022-11-24T23:13:38.017Z,101153.06
2022-11-24T23:16:11.740Z,101150.44
2022-11-24T23:18:38.884Z,101152.25
2022-11-24T23:21:14.255Z,101146.19
2022-11-24T23:23:41.274Z,101145.38
2022-11-24T23:26:11.019Z,101135.84
2022-11-24T23:28:38.428Z,101146.34
2022-11-24T23:31:07.835Z,101147.16
2022-11-24T23:33:35.286Z,101139.28
2022-11-24T23:36:04.772Z,101129.78
2022-11-24T23:38:35.351Z,101134.91
2022-11-24T23:41:04.995Z,101134.03
2022-11-24T23:43:32.860Z,101129.66
2022-11-24T23:46:07.586Z,101123.56
2022-11-24T23:48:35.016Z,101128.66
2022-11-24T23:51:14.133Z,101131.09
2022-11-24T23:53:41.463Z,101133.09
2022-11-24T23:56:09.330Z,101130.47
2022-11-24T23:58:35.896Z,101129.78
